createdAt,value
2022-09-02T00:01:29.612Z,99.90
2022-09-02T00:03:59.039Z,99.90
2022-09-02T00:06:27.870Z,99.90
2022-09-02T00:08:55.201Z,99.90
2022-09-02T00:11:24.313Z,99.90
2022-09-02T00:13:51.705Z,99.90
2022-09-02T00:16:19.352Z,99.90
2022-09-02T00:18:48.257Z,99.90
2022-09-02T00:21:15.619Z,99.90
2022-09-02T00:23:43.409Z,99.90
2022-09-02T00:26:11.120Z,99.90
2022-09-02T00:28:39.035Z,99.90
2022-09-02T00:31:07.851Z,99.90
2022-09-02T00:33:35.458Z,99.90
2022-09-02T00:36:03.575Z,99.90
2022-09-02T00:38:33.686Z,99.90
2022-09-02T00:41:01.871Z,99.90
2022-09-02T00:43:41.320Z,99.90
2022-09-02T00:46:08.745Z,99.90
2022-09-02T00:48:37.952Z,99.90
2022-09-02T00:51:06.803Z,99.90
2022-09-02T00:53:34.352Z,99.90
2022-09-02T00:56:01.662Z,99.90
2022-09-02T00:58:31.950Z,99.90
2022-09-02T01:00:59.365Z,99.90
2022-09-02T01:03:27.961Z,99.90
2022-09-02T01:05:55.747Z,99.90
2022-09-02T01:08:32.712Z,99.90
2022-09-02T01:11:00.855Z,99.90
2022-09-02T01:13:29.931Z,99.90
2022-09-02T01:16:25.679Z,99.90
2022-09-02T01:18:54.708Z,99.90
2022-09-02T01:21:23.133Z,99.90
2022-09-02T01:23:50.919Z,99.90
2022-09-02T01:26:18.432Z,99.90
2022-09-02T01:28:45.750Z,99.90
2022-09-02T01:31:13.149Z,99.90
2022-09-02T01:33:40.535Z,99.90
2022-09-02T01:36:08.239Z,99.90
2022-09-02T01:38:35.600Z,99.90
2022-09-02T01:41:03.351Z,99.90
2022-09-02T01:43:31.506Z,99.90
2022-09-02T01:45:59.564Z,99.90
2022-09-02T01:48:29.720Z,99.90
2022-09-02T01:51:00.097Z,99.90
2022-09-02T01:53:27.654Z,99.90
2022-09-02T01:55:55.298Z,99.90
2022-09-02T01:58:22.846Z,99.90
2022-09-02T02:00:50.972Z,99.90
2022-09-02T02:03:18.423Z,99.90
2022-09-02T02:05:45.743Z,99.90
2022-09-02T02:08:16.545Z,99.90
2022-09-02T02:10:43.966Z,99.90
2022-09-02T02:13:13.195Z,99.90
2022-09-02T02:15:42.567Z,99.90
2022-09-02T02:18:11.551Z,99.90
2022-09-02T02:20:38.772Z,99.90
2022-09-02T02:23:06.215Z,99.90
2022-09-02T02:25:33.457Z,99.90
2022-09-02T02:28:00.746Z,99.90
2022-09-02T02:30:30.822Z,99.90
2022-09-02T02:32:59.135Z,99.90
2022-09-02T02:35:26.390Z,99.90
2022-09-02T02:37:53.813Z,99.90
2022-09-02T02:40:22.380Z,99.90
2022-09-02T02:42:53.175Z,99.90
2022-09-02T02:45:22.226Z,99.90
2022-09-02T02:47:49.704Z,99.90
2022-09-02T02:50:19.311Z,99.90
2022-09-02T02:52:48.827Z,99.90
2022-09-02T02:55:17.564Z,99.90
2022-09-02T02:57:44.892Z,99.90
2022-09-02T03:00:18.762Z,99.90
2022-09-02T03:02:48.095Z,99.90
2022-09-02T03:05:16.311Z,99.90
2022-09-02T03:07:43.607Z,99.90
2022-09-02T03:10:11.906Z,99.90
2022-09-02T03:12:40.642Z,99.90
2022-09-02T03:15:08.966Z,99.90
2022-09-02T03:17:36.272Z,99.90
2022-09-02T03:20:05.376Z,99.90
2022-09-02T03:22:38.804Z,99.90
2022-09-02T03:25:08.402Z,99.90
2022-09-02T03:27:37.344Z,99.90
2022-09-02T03:30:09.479Z,99.90
2022-09-02T03:32:37.727Z,99.90
2022-09-02T03:35:10.499Z,99.90
2022-09-02T03:37:37.988Z,99.90
2022-09-02T03:40:10.670Z,99.90
2022-09-02T03:42:38.523Z,99.90
2022-09-02T03:45:08.458Z,99.90
2022-09-02T03:47:36.133Z,99.90
2022-09-02T03:50:04.470Z,99.90
2022-09-02T03:52:31.714Z,99.90
2022-09-02T03:54:58.995Z,99.90
2022-09-02T03:57:28.457Z,99.90
2022-09-02T03:59:57.615Z,99.90
2022-09-02T04:02:24.913Z,99.90
2022-09-02T04:04:52.926Z,99.90
2022-09-02T04:07:21.062Z,99.90
2022-09-02T04:09:48.957Z,99.90
2022-09-02T04:12:16.203Z,99.90
2022-09-02T04:14:43.565Z,99.90
2022-09-02T04:17:11.174Z,99.90
2022-09-02T04:19:39.234Z,99.90
2022-09-02T04:22:07.881Z,99.90
2022-09-02T04:24:36.446Z,99.90
2022-09-02T04:27:04.665Z,99.90
2022-09-02T04:29:34.583Z,99.90
2022-09-02T04:32:01.910Z,99.90
2022-09-02T04:34:29.227Z,99.90
2022-09-02T04:36:56.611Z,99.90
2022-09-02T04:39:24.725Z,99.90
2022-09-02T04:41:53.847Z,99.90
2022-09-02T04:44:21.460Z,99.90
2022-09-02T04:46:50.407Z,99.90
2022-09-02T04:49:19.811Z,99.90
2022-09-02T04:51:47.831Z,99.90
2022-09-02T04:54:15.207Z,99.90
2022-09-02T04:56:45.932Z,99.90
2022-09-02T04:59:13.916Z,99.90
2022-09-02T05:01:47.825Z,99.90
2022-09-02T05:04:19.941Z,99.90
2022-09-02T05:06:50.698Z,99.90
2022-09-02T05:09:20.362Z,99.90
2022-09-02T05:11:57.265Z,99.90
2022-09-02T05:14:26.663Z,99.90
2022-09-02T05:16:57.886Z,99.90
2022-09-02T05:19:25.113Z,99.90
2022-09-02T05:21:57.465Z,99.90
2022-09-02T05:24:29.640Z,99.90
2022-09-02T05:27:00.054Z,99.90
2022-09-02T05:29:28.973Z,99.90
2022-09-02T05:31:57.642Z,99.90
2022-09-02T05:34:26.324Z,99.90
2022-09-02T05:36:57.273Z,99.90
2022-09-02T05:39:29.223Z,99.90
2022-09-02T05:41:56.586Z,99.90
2022-09-02T05:44:23.839Z,99.90
2022-09-02T05:46:51.274Z,99.90
2022-09-02T05:49:18.546Z,99.90
2022-09-02T05:51:52.991Z,99.90
2022-09-02T05:54:26.204Z,99.90
2022-09-02T05:56:55.195Z,99.90
2022-09-02T05:59:23.068Z,99.90
2022-09-02T06:01:50.767Z,99.90
2022-09-02T06:04:18.343Z,99.90
2022-09-02T06:06:47.527Z,99.90
2022-09-02T06:09:18.510Z,99.90
2022-09-02T06:11:49.311Z,99.90
2022-09-02T06:14:22.144Z,99.90
2022-09-02T06:16:51.037Z,99.90
2022-09-02T06:19:25.918Z,99.90
2022-09-02T06:21:54.463Z,99.90
2022-09-02T06:24:24.955Z,99.90
2022-09-02T06:26:55.544Z,99.90
2022-09-02T06:29:25.288Z,99.90
2022-09-02T06:31:54.079Z,99.90
2022-09-02T06:34:23.897Z,99.90
2022-09-02T06:36:51.265Z,99.90
2022-09-02T06:39:21.322Z,99.90
2022-09-02T06:41:49.594Z,99.90
2022-09-02T06:44:21.487Z,99.90
2022-09-02T06:46:54.586Z,99.90
2022-09-02T06:49:22.514Z,99.90
2022-09-02T06:51:50.768Z,99.90
2022-09-02T06:54:20.008Z,99.90
2022-09-02T06:56:51.015Z,99.90
2022-09-02T06:59:22.540Z,99.90
2022-09-02T07:01:53.703Z,99.90
2022-09-02T07:04:41.879Z,99.90
2022-09-02T07:07:12.330Z,99.90
2022-09-02T07:09:53.151Z,99.90
2022-09-02T07:12:20.552Z,99.90
2022-09-02T07:14:54.158Z,99.90
2022-09-02T07:17:26.658Z,99.90
2022-09-02T07:20:00.307Z,99.90
2022-09-02T07:22:30.282Z,99.90
2022-09-02T07:24:57.598Z,99.90
2022-09-02T07:27:27.137Z,99.90
2022-09-02T07:29:56.807Z,99.90
2022-09-02T07:32:24.691Z,99.90
2022-09-02T07:34:52.678Z,99.90
2022-09-02T07:37:19.931Z,99.90
2022-09-02T07:39:48.255Z,99.90
2022-09-02T07:42:16.622Z,99.90
2022-09-02T07:44:44.586Z,99.90
2022-09-02T07:47:12.649Z,99.90
2022-09-02T07:52:30.718Z,99.90
2022-09-02T07:54:58.211Z,99.90
2022-09-02T07:57:25.939Z,99.90
2022-09-02T07:59:53.284Z,99.90
2022-09-02T08:02:20.588Z,99.90
2022-09-02T08:04:47.902Z,99.90
2022-09-02T08:07:16.847Z,99.90
2022-09-02T08:09:44.082Z,99.90
2022-09-02T08:12:11.310Z,99.90
2022-09-02T08:14:38.570Z,99.90
2022-09-02T08:17:05.786Z,99.90
2022-09-02T08:19:33.358Z,99.90
2022-09-02T08:22:06.786Z,99.90
2022-09-02T08:24:34.108Z,99.90
2022-09-02T08:27:01.374Z,99.90
2022-09-02T08:29:28.593Z,99.90
2022-09-02T08:31:55.834Z,99.90
2022-09-02T08:34:23.112Z,99.90
2022-09-02T08:36:56.163Z,99.90
2022-09-02T08:39:24.507Z,99.90
2022-09-02T08:42:07.716Z,99.90
2022-09-02T08:44:37.480Z,99.90
2022-09-02T08:47:06.384Z,99.90
2022-09-02T08:49:35.572Z,99.90
2022-09-02T08:52:03.703Z,99.90
2022-09-02T08:54:35.688Z,99.90
2022-09-02T08:57:03.058Z,99.90
2022-09-02T08:59:30.773Z,99.90
2022-09-02T09:02:32.741Z,99.90
2022-09-02T09:05:25.176Z,99.90
2022-09-02T09:08:13.915Z,99.90
2022-09-02T09:11:03.825Z,99.90
2022-09-02T09:13:58.709Z,99.90
2022-09-02T09:16:32.494Z,99.90
2022-09-02T09:19:27.815Z,99.90
2022-09-02T09:21:55.041Z,99.90
2022-09-02T09:24:30.011Z,99.90
2022-09-02T09:26:57.238Z,99.90
2022-09-02T09:29:24.559Z,99.90
2022-09-02T09:31:57.333Z,99.90
2022-09-02T09:34:24.599Z,99.90
2022-09-02T09:36:53.906Z,99.90
2022-09-02T09:39:31.447Z,99.90
2022-09-02T09:42:31.958Z,99.90
2022-09-02T09:44:59.298Z,99.90
2022-09-02T09:47:26.706Z,99.90
2022-09-02T09:50:09.476Z,99.90
2022-09-02T09:52:37.905Z,99.90
2022-09-02T09:55:24.959Z,99.90
2022-09-02T09:57:54.009Z,99.90
2022-09-02T10:00:29.323Z,99.90
2022-09-02T10:02:58.387Z,99.90
2022-09-02T10:05:25.584Z,99.90
2022-09-02T10:07:57.975Z,99.90
2022-09-02T10:10:27.247Z,99.90
2022-09-02T10:12:56.731Z,99.90
2022-09-02T10:15:55.274Z,99.90
2022-09-02T10:18:32.215Z,99.90
2022-09-02T10:21:27.611Z,99.90
2022-09-02T10:24:28.116Z,99.90
2022-09-02T10:26:57.047Z,99.90
2022-09-02T10:29:39.592Z,99.90
2022-09-02T10:32:12.784Z,99.90
2022-09-02T10:34:43.252Z,99.90
2022-09-02T10:37:21.338Z,99.90
2022-09-02T10:40:10.618Z,99.90
2022-09-02T10:42:43.696Z,99.90
2022-09-02T10:45:36.249Z,99.90
2022-09-02T10:48:06.536Z,99.90
2022-09-02T10:50:48.130Z,99.60
2022-09-02T10:53:20.355Z,99.90
2022-09-02T10:56:21.724Z,99.90
2022-09-02T10:59:03.221Z,99.70
2022-09-02T11:01:46.545Z,99.90
2022-09-02T11:04:27.901Z,99.20
2022-09-02T11:07:03.663Z,99.80
2022-09-02T11:09:39.258Z,99.50
2022-09-02T11:12:10.161Z,99.70
2022-09-02T11:15:09.416Z,99.20
2022-09-02T11:18:15.059Z,98.70
2022-09-02T11:21:11.598Z,97.90
2022-09-02T11:23:54.465Z,98.70
2022-09-02T11:26:25.036Z,98.60
2022-09-02T11:29:10.517Z,99.20
2022-09-02T11:31:39.408Z,97.80
2022-09-02T11:34:34.937Z,98.40
2022-09-02T11:37:05.170Z,97.90
2022-09-02T11:40:11.566Z,97.30
2022-09-02T11:42:53.283Z,96.70
2022-09-02T11:45:32.659Z,97.30
2022-09-02T11:48:23.973Z,97.80
2022-09-02T11:51:01.857Z,97.30
2022-09-02T11:53:41.653Z,97.60
2022-09-02T11:56:15.914Z,97.50
2022-09-02T11:58:45.258Z,97.00
2022-09-02T12:01:15.610Z,96.90
2022-09-02T12:04:06.856Z,96.40
2022-09-02T12:06:31.968Z,96.60
2022-09-02T12:09:03.510Z,96.50
2022-09-02T12:11:46.955Z,97.20
2022-09-02T12:14:26.966Z,97.30
2022-09-02T12:17:03.685Z,96.50
2022-09-02T12:19:43.466Z,96.20
2022-09-02T12:22:15.610Z,96.00
2022-09-02T12:24:54.944Z,96.20
2022-09-02T12:27:42.445Z,96.00
2022-09-02T12:30:13.042Z,95.90
2022-09-02T12:32:46.526Z,96.00
2022-09-02T12:35:39.344Z,95.30
2022-09-02T12:38:10.450Z,96.20
2022-09-02T12:40:49.248Z,96.40
2022-09-02T12:43:36.292Z,96.10
2022-09-02T12:46:26.117Z,95.90
2022-09-02T12:49:05.677Z,96.10
2022-09-02T12:51:51.962Z,95.50
2022-09-02T12:54:24.079Z,95.80
2022-09-02T12:56:51.403Z,95.20
2022-09-02T12:59:31.424Z,94.80
2022-09-02T13:02:14.632Z,95.90
2022-09-02T13:05:38.792Z,95.50
2022-09-02T13:08:21.256Z,95.00
2022-09-02T13:11:26.383Z,95.10
2022-09-02T13:14:21.403Z,95.20
2022-09-02T13:17:19.184Z,95.00
2022-09-02T13:20:33.867Z,95.40
2022-09-02T13:23:10.263Z,95.80
2022-09-02T13:25:46.351Z,94.50
2022-09-02T13:28:40.893Z,95.40
2022-09-02T13:31:21.710Z,95.00
2022-09-02T13:34:11.689Z,95.40
2022-09-02T13:36:44.826Z,95.60
2022-09-02T13:39:18.607Z,94.90
2022-09-02T13:41:46.004Z,95.20
2022-09-02T13:44:20.131Z,94.90
2022-09-02T13:46:48.882Z,95.20
2022-09-02T13:49:41.170Z,94.80
2022-09-02T13:52:15.041Z,94.80
2022-09-02T13:54:54.647Z,94.80
2022-09-02T13:57:25.827Z,94.40
2022-09-02T13:59:54.557Z,94.80
2022-09-02T14:02:33.091Z,94.70
2022-09-02T14:05:23.194Z,94.20
2022-09-02T14:07:57.880Z,94.60
2022-09-02T14:10:27.049Z,94.90
2022-09-02T14:12:55.440Z,95.00
2022-09-02T14:15:30.281Z,94.10
2022-09-02T14:18:19.812Z,94.30
2022-09-02T14:21:18.774Z,94.60
2022-09-02T14:23:51.193Z,94.40
2022-09-02T14:26:45.674Z,94.10
2022-09-02T14:29:17.812Z,94.70
2022-09-02T14:31:45.329Z,95.00
2022-09-02T14:34:31.827Z,94.20
2022-09-02T14:36:59.030Z,94.70
2022-09-02T14:39:26.337Z,94.20
2022-09-02T14:41:55.733Z,94.60
2022-09-02T14:44:32.746Z,94.20
2022-09-02T14:47:13.880Z,94.40
2022-09-02T14:49:50.587Z,94.70
2022-09-02T14:52:29.951Z,93.70
2022-09-02T14:54:57.703Z,94.60
2022-09-02T14:57:35.387Z,93.80
2022-09-02T15:00:11.409Z,93.60
2022-09-02T15:02:42.988Z,93.80
2022-09-02T15:05:13.565Z,93.40
2022-09-02T15:07:41.228Z,93.50
2022-09-02T15:10:09.725Z,93.90
2022-09-02T15:12:52.479Z,94.10
2022-09-02T15:15:19.759Z,93.90
2022-09-02T15:17:47.020Z,93.60
2022-09-02T15:20:14.302Z,93.80
2022-09-02T15:22:42.867Z,93.30
2022-09-02T15:25:11.026Z,93.70
2022-09-02T15:27:38.290Z,93.70
2022-09-02T15:30:07.103Z,93.90
2022-09-02T15:32:35.432Z,94.20
2022-09-02T15:35:03.083Z,94.00
2022-09-02T15:37:30.400Z,93.80
2022-09-02T15:39:57.652Z,93.90
2022-09-02T15:42:24.940Z,93.70
2022-09-02T15:44:52.175Z,93.60
2022-09-02T15:47:21.054Z,93.70
2022-09-02T15:49:48.297Z,94.20
2022-09-02T15:52:15.741Z,93.50
2022-09-02T15:54:42.967Z,94.60
2022-09-02T15:57:11.547Z,94.20
2022-09-02T15:59:38.775Z,94.60
2022-09-02T16:02:06.149Z,94.40
2022-09-02T16:04:33.774Z,94.50
2022-09-02T16:07:01.154Z,93.90
2022-09-02T16:09:28.915Z,93.40
2022-09-02T16:11:56.279Z,93.80
2022-09-02T16:14:24.836Z,93.80
2022-09-02T16:16:54.982Z,93.70
2022-09-02T16:19:22.874Z,93.90
2022-09-02T16:21:50.826Z,93.60
2022-09-02T16:24:19.923Z,93.50
2022-09-02T16:26:47.304Z,94.00
2022-09-02T16:29:14.967Z,93.80
2022-09-02T16:31:43.202Z,94.00
2022-09-02T16:34:15.022Z,94.60
2022-09-02T16:36:43.983Z,94.50
2022-09-02T16:39:12.879Z,94.50
2022-09-02T16:41:45.073Z,95.00
2022-09-02T16:44:20.028Z,94.30
2022-09-02T16:46:48.168Z,94.50
2022-09-02T16:49:19.719Z,94.50
2022-09-02T16:51:47.873Z,94.20
2022-09-02T16:54:21.114Z,94.20
2022-09-02T16:56:56.939Z,93.40
2022-09-02T16:59:24.152Z,92.60
2022-09-02T17:01:51.433Z,91.90
2022-09-02T17:04:18.706Z,90.60
2022-09-02T17:06:45.931Z,88.80
2022-09-02T17:09:13.161Z,87.70
2022-09-02T17:11:41.339Z,87.60
2022-09-02T17:14:10.386Z,89.40
2022-09-02T17:16:42.299Z,90.50
2022-09-02T17:19:10.393Z,91.10
2022-09-02T17:21:44.487Z,91.60
2022-09-02T17:24:12.614Z,92.40
2022-09-02T17:26:41.804Z,92.80
2022-09-02T17:29:21.222Z,94.00
2022-09-02T17:31:53.456Z,94.90
2022-09-02T17:34:20.795Z,95.20
2022-09-02T17:36:48.046Z,95.60
2022-09-02T17:39:16.873Z,96.50
2022-09-02T17:41:57.411Z,96.40
2022-09-02T17:44:34.832Z,96.10
2022-09-02T17:47:04.983Z,96.40
2022-09-02T17:49:36.590Z,96.10
2022-09-02T17:52:07.952Z,96.70
2022-09-02T17:54:35.987Z,96.70
2022-09-02T17:57:03.837Z,97.00
2022-09-02T17:59:34.123Z,97.10
2022-09-02T18:02:29.130Z,97.50
2022-09-02T18:05:16.578Z,97.40
2022-09-02T18:08:14.427Z,97.40
2022-09-02T18:10:57.226Z,98.40
2022-09-02T18:13:33.059Z,98.20
2022-09-02T18:16:27.447Z,97.90
2022-09-02T18:19:25.307Z,98.20
2022-09-02T18:22:06.918Z,98.40
2022-09-02T18:25:03.939Z,98.30
2022-09-02T18:27:43.913Z,99.20
2022-09-02T18:30:30.881Z,99.60
2022-09-02T18:33:20.795Z,99.20
2022-09-02T18:36:26.391Z,99.80
2022-09-02T18:39:06.051Z,99.20
2022-09-02T18:41:48.565Z,98.70
2022-09-02T18:44:38.319Z,99.20
2022-09-02T18:47:23.720Z,99.60
2022-09-02T18:49:55.197Z,99.70
2022-09-02T18:52:26.298Z,99.50
2022-09-02T18:54:59.654Z,99.90
2022-09-02T18:57:33.331Z,99.90
2022-09-02T19:00:05.514Z,99.60
2022-09-02T19:02:39.886Z,99.90
2022-09-02T19:05:09.734Z,99.90
2022-09-02T19:07:56.713Z,99.90
2022-09-02T19:10:23.969Z,99.90
2022-09-02T19:12:51.847Z,99.90
2022-09-02T19:15:19.175Z,99.90
2022-09-02T19:17:46.412Z,99.90
2022-09-02T19:20:13.983Z,99.90
2022-09-02T19:22:43.885Z,99.90
2022-09-02T19:25:17.273Z,99.90
2022-09-02T19:27:44.550Z,99.90
2022-09-02T19:30:12.602Z,99.90
2022-09-02T19:32:42.178Z,99.90
2022-09-02T19:35:16.212Z,99.90
2022-09-02T19:37:46.916Z,99.90
2022-09-02T19:40:22.120Z,99.90
2022-09-02T19:42:51.899Z,99.90
2022-09-02T19:45:19.983Z,99.90
2022-09-02T19:48:06.655Z,99.90
2022-09-02T19:50:40.877Z,99.90
2022-09-02T19:53:30.055Z,99.90
2022-09-02T19:55:58.173Z,99.90
2022-09-02T19:58:26.229Z,99.90
2022-09-02T20:00:54.080Z,99.90
2022-09-02T20:03:21.359Z,99.90
2022-09-02T20:05:52.773Z,99.90
2022-09-02T20:08:20.846Z,99.90
2022-09-02T20:10:55.990Z,99.90
2022-09-02T20:13:24.259Z,99.90
2022-09-02T20:15:52.122Z,99.90
2022-09-02T20:18:21.372Z,99.90
2022-09-02T20:20:50.301Z,99.90
2022-09-02T20:23:18.585Z,99.90
2022-09-02T20:25:51.698Z,99.90
2022-09-02T20:28:28.371Z,99.90
2022-09-02T20:31:15.906Z,99.90
2022-09-02T20:33:50.271Z,99.90
2022-09-02T20:36:38.905Z,99.90
2022-09-02T20:39:18.368Z,99.90
2022-09-02T20:41:55.124Z,99.90
2022-09-02T20:44:34.685Z,99.90
2022-09-02T20:47:09.083Z,99.90
2022-09-02T20:49:54.473Z,99.90
2022-09-02T20:52:49.417Z,99.90
2022-09-02T20:55:19.207Z,99.90
2022-09-02T20:58:15.393Z,99.90
2022-09-02T21:00:53.271Z,99.90
2022-09-02T21:03:21.074Z,99.90
2022-09-02T21:05:50.818Z,99.90
2022-09-02T21:08:24.492Z,99.90
2022-09-02T21:10:52.694Z,99.90
2022-09-02T21:13:27.651Z,99.90
2022-09-02T21:15:56.073Z,99.90
2022-09-02T21:18:33.326Z,99.90
2022-09-02T21:21:04.655Z,99.90
2022-09-02T21:23:43.114Z,99.90
2022-09-02T21:26:17.201Z,99.90
2022-09-02T21:28:49.109Z,99.90
2022-09-02T21:31:35.562Z,99.90
2022-09-02T21:34:10.715Z,99.90
2022-09-02T21:36:37.942Z,99.90
2022-09-02T21:39:10.124Z,99.90
2022-09-02T21:41:39.388Z,99.90
2022-09-02T21:44:45.377Z,99.90
2022-09-02T21:47:19.388Z,99.90
2022-09-02T21:49:57.160Z,99.90
2022-09-02T21:52:45.537Z,99.90
2022-09-02T21:55:26.490Z,99.90
2022-09-02T21:58:02.498Z,99.90
2022-09-02T22:00:29.772Z,99.90
2022-09-02T22:03:22.831Z,99.90
2022-09-02T22:06:05.402Z,99.90
2022-09-02T22:08:34.506Z,99.90
2022-09-02T22:11:05.959Z,99.90
2022-09-02T22:13:33.786Z,99.90
2022-09-02T22:16:22.584Z,99.90
2022-09-02T22:19:00.781Z,99.90
2022-09-02T22:21:30.772Z,99.90
2022-09-02T22:23:59.350Z,99.90
2022-09-02T22:26:55.190Z,99.90
2022-09-02T22:29:46.372Z,99.90
2022-09-02T22:32:14.717Z,99.90
2022-09-02T22:34:45.969Z,99.90
2022-09-02T22:37:17.082Z,99.90
2022-09-02T22:39:49.294Z,99.90
2022-09-02T22:42:33.343Z,99.90
2022-09-02T22:45:29.364Z,99.90
2022-09-02T22:48:44.587Z,99.90
2022-09-02T22:51:37.358Z,99.90
2022-09-02T22:54:04.650Z,99.90
2022-09-02T22:56:41.501Z,99.90
2022-09-02T22:59:41.160Z,99.90
2022-09-02T23:02:29.231Z,99.90
2022-09-02T23:05:02.859Z,99.90
2022-09-02T23:07:31.143Z,99.90
2022-09-02T23:10:03.011Z,99.90
2022-09-02T23:12:37.275Z,99.90
2022-09-02T23:15:23.415Z,99.90
2022-09-02T23:17:59.241Z,99.90
2022-09-02T23:20:32.265Z,99.90
2022-09-02T23:23:04.395Z,99.90
2022-09-02T23:25:40.963Z,99.90
2022-09-02T23:28:18.455Z,99.90
2022-09-02T23:31:08.601Z,99.90
2022-09-02T23:33:42.620Z,99.90
2022-09-02T23:36:25.899Z,99.90
2022-09-02T23:39:07.847Z,99.90
2022-09-02T23:41:36.383Z,99.90
2022-09-02T23:44:05.391Z,99.90
2022-09-02T23:46:47.501Z,99.90
2022-09-02T23:49:36.233Z,99.90
2022-09-02T23:52:16.315Z,99.90
2022-09-02T23:55:20.139Z,99.90
2022-09-02T23:58:41.181Z,99.90
